Weather at Gothenburg-Landvetter Airport

Public forecast

Using degrees Celsius for public forecast. Weather courtesy of forecast.io.

Current aviation weather report (METAR) for Gothenburg-Landvetter Airport

Retrieved 2022/08/09 15:50 UTC (14 minutes ago):

ESGG 091550Z 24008KT CAVOK 18/11 Q1028

Aviation forecast (TAF) for Gothenburg-Landvetter Airport

Retrieved 2022/08/09 15:00 UTC (1 hour ago):

TAF ESGG 091430Z 0915/1015 23010KT 9999 SCT030 TEMPO 0922/1003 VRB02KT PROB40 0922/1006 0300 FG VV002